Time;durP1;ratioP1;P1;durP2;ratioP2;P2;SDS_P1;SDS_P2;PMS_P1;PMS_P2;Temp;Humidity;BMP_temperature;BMP_pressure;BME280_temperature;BME280_humidity;BME280_pressure;Samples;Min_cycle;Max_cycle;Signal;HPM_P1;HPM_P2
2022/06/16 00:01:56;;;;;;;7.10;5.80;;;20.80;55.80;;;;;;5018434;28;20761;-72
2022/06/16 00:04:23;;;;;;;6.83;5.30;;;20.80;56.40;;;;;;5019484;28;20913;-72
2022/06/16 00:06:49;;;;;;;7.70;5.40;;;20.80;57.00;;;;;;5016797;28;20183;-72
2022/06/16 00:09:14;;;;;;;7.60;5.97;;;20.70;57.30;;;;;;5010240;28;21035;-73
2022/06/16 00:11:40;;;;;;;6.97;5.13;;;20.70;57.30;;;;;;5011983;28;20920;-71
2022/06/16 00:14:06;;;;;;;7.60;5.87;;;20.70;57.60;;;;;;5014250;28;20183;-72
2022/06/16 00:16:32;;;;;;;7.07;5.30;;;20.70;57.80;;;;;;5010772;28;20307;-73
2022/06/16 00:18:58;;;;;;;6.80;5.03;;;20.80;58.10;;;;;;5018199;28;20220;-72
2022/06/16 00:21:24;;;;;;;7.30;5.23;;;20.70;58.20;;;;;;5020934;28;20451;-71
2022/06/16 00:23:50;;;;;;;8.07;4.97;;;20.70;58.50;;;;;;5015363;28;20187;-71
2022/06/16 00:26:23;;;;;;;10.07;5.80;;;20.70;57.80;;;;;;5010266;28;20873;-72
2022/06/16 00:28:50;;;;;;;8.73;5.47;;;20.60;58.20;;;;;;5010612;28;20227;-73
2022/06/16 00:31:18;;;;;;;7.90;5.87;;;20.50;58.80;;;;;;5016289;28;20775;-72
2022/06/16 00:33:45;;;;;;;10.60;6.00;;;20.50;58.40;;;;;;5014080;28;21015;-72
2022/06/16 00:36:11;;;;;;;11.93;6.90;;;20.50;58.40;;;;;;5010320;28;20422;-73
2022/06/16 00:38:37;;;;;;;7.97;6.10;;;20.40;58.70;;;;;;5011208;28;20469;-72
2022/06/16 00:41:03;;;;;;;9.27;6.53;;;20.40;59.30;;;;;;5012086;28;20847;-72
2022/06/16 00:43:29;;;;;;;8.37;6.17;;;20.40;59.30;;;;;;5015159;28;20520;-72
2022/06/16 00:46:14;;;;;;;9.93;6.00;;;20.40;59.50;;;;;;5013452;28;20475;-72
2022/06/16 00:48:42;;;;;;;7.57;5.53;;;20.30;59.30;;;;;;5008613;28;20502;-72
2022/06/16 00:51:15;;;;;;;10.07;6.23;;;20.20;59.60;;;;;;5012556;28;20844;-72
2022/06/16 00:53:42;;;;;;;6.53;5.33;;;20.10;60.10;;;;;;5014070;28;20461;-72
2022/06/16 00:56:11;;;;;;;12.60;5.97;;;20.00;60.60;;;;;;5010459;28;20444;-71
2022/06/16 00:58:40;;;;;;;8.40;6.10;;;19.90;60.90;;;;;;5007645;28;20534;-72
2022/06/16 01:01:08;;;;;;;7.47;5.63;;;19.90;61.30;;;;;;5011012;28;20426;-72
2022/06/16 01:06:25;;;;;;;9.27;6.00;;;19.90;61.50;;;;;;5006588;28;20445;-72
2022/06/16 01:09:02;;;;;;;8.57;6.10;;;19.90;61.50;;;;;;5007723;28;20489;-72
2022/06/16 01:14:45;;;;;;;12.30;6.27;;;19.90;61.50;;;;;;5008427;28;20412;-72
2022/06/16 01:17:35;;;;;;;8.37;5.87;;;19.90;61.00;;;;;;5007534;28;20454;-72
2022/06/16 01:20:10;;;;;;;8.13;5.80;;;19.90;61.30;;;;;;5007796;28;20217;-71
2022/06/16 01:22:48;;;;;;;7.67;5.87;;;19.70;61.60;;;;;;5005050;28;20476;-72
2022/06/16 01:25:30;;;;;;;8.73;5.67;;;19.70;62.30;;;;;;5012767;28;21270;-73
2022/06/16 01:28:33;;;;;;;8.80;5.97;;;19.70;62.30;;;;;;5014683;28;20456;-72
2022/06/16 01:31:02;;;;;;;7.83;5.80;;;19.60;62.80;;;;;;5008252;28;20419;-72
2022/06/16 01:33:45;;;;;;;8.43;5.80;;;19.60;63.20;;;;;;5012026;28;20453;-72
2022/06/16 01:36:34;;;;;;;6.67;5.50;;;19.60;63.70;;;;;;5009092;28;20424;-71
2022/06/16 01:39:19;;;;;;;9.03;5.87;;;19.60;63.50;;;;;;5007605;28;20543;-72
2022/06/16 01:42:07;;;;;;;12.30;5.90;;;19.70;62.60;;;;;;5007025;28;20417;-71
2022/06/16 01:44:40;;;;;;;7.70;5.30;;;19.70;61.90;;;;;;5008210;28;20418;-72
2022/06/16 01:47:13;;;;;;;8.50;6.10;;;19.60;62.00;;;;;;5008782;28;20413;-72
2022/06/16 01:49:45;;;;;;;6.50;5.03;;;19.60;62.60;;;;;;5006833;28;20469;-72
2022/06/16 01:52:20;;;;;;;7.93;5.80;;;19.50;62.90;;;;;;5011359;28;21113;-71
2022/06/16 01:55:01;;;;;;;7.90;5.00;;;19.50;63.50;;;;;;5005806;28;20783;-72
2022/06/16 01:58:02;;;;;;;8.20;5.80;;;19.50;63.50;;;;;;5012948;28;20433;-72
2022/06/16 02:00:29;;;;;;;11.97;5.77;;;19.50;62.60;;;;;;4999089;28;20446;-73
2022/06/16 02:03:04;;;;;;;6.20;5.30;;;19.60;62.80;;;;;;5007433;28;20464;-72
2022/06/16 02:05:44;;;;;;;9.13;5.50;;;19.50;62.90;;;;;;5007233;28;20426;-72
2022/06/16 02:08:17;;;;;;;8.00;5.77;;;19.50;62.90;;;;;;5006329;28;20503;-72
2022/06/16 02:10:51;;;;;;;11.27;5.80;;;19.50;63.10;;;;;;5009899;28;20421;-72
2022/06/16 02:13:24;;;;;;;10.73;5.87;;;19.40;63.10;;;;;;5007041;28;20425;-72
2022/06/16 02:16:12;;;;;;;8.93;4.70;;;19.30;63.10;;;;;;5006663;28;20524;-72
2022/06/16 02:18:39;;;;;;;7.47;5.27;;;19.30;62.80;;;;;;5001403;28;20472;-72
2022/06/16 02:21:17;;;;;;;6.87;5.50;;;19.20;62.80;;;;;;5009552;28;20451;-72
2022/06/16 02:23:45;;;;;;;11.03;4.73;;;19.20;62.80;;;;;;5005126;28;20479;-71
2022/06/16 02:26:11;;;;;;;7.70;5.43;;;19.20;62.80;;;;;;5008944;28;20486;-71
2022/06/16 02:28:44;;;;;;;9.00;5.80;;;19.30;62.50;;;;;;5012454;28;20554;-73
2022/06/16 02:31:38;;;;;;;6.27;5.23;;;19.30;62.20;;;;;;5014763;28;20584;-71
2022/06/16 02:34:45;;;;;;;9.03;5.03;;;19.30;62.00;;;;;;5014635;28;20497;-71
2022/06/16 02:37:31;;;;;;;6.67;5.57;;;19.20;61.70;;;;;;5012035;28;20504;-73
2022/06/16 02:40:23;;;;;;;7.27;5.17;;;19.20;61.00;;;;;;5014847;28;20458;-72
2022/06/16 02:43:20;;;;;;;6.20;4.93;;;19.30;60.70;;;;;;5015812;28;20442;-72
2022/06/16 02:45:57;;;;;;;7.60;4.57;;;19.20;61.30;;;;;;5017935;28;20412;-72
2022/06/16 02:48:35;;;;;;;7.87;4.87;;;19.20;60.90;;;;;;5011840;28;20571;-73
2022/06/16 02:51:28;;;;;;;6.63;4.40;;;19.20;61.60;;;;;;5020884;28;20973;-72
2022/06/16 02:54:20;;;;;;;5.90;5.00;;;19.20;61.50;;;;;;5014751;28;20421;-71
2022/06/16 02:57:08;;;;;;;5.80;4.70;;;19.30;61.90;;;;;;5011217;28;20413;-72
2022/06/16 02:59:43;;;;;;;9.73;5.53;;;19.30;61.50;;;;;;5011821;28;20485;-73
2022/06/16 03:02:15;;;;;;;9.60;5.57;;;19.20;61.50;;;;;;5016828;28;20449;-72
2022/06/16 03:04:43;;;;;;;7.10;5.57;;;19.20;60.90;;;;;;5016607;28;20436;-71
2022/06/16 03:07:14;;;;;;;7.30;5.60;;;19.20;60.70;;;;;;5013064;28;20416;-72
2022/06/16 03:09:39;;;;;;;10.27;6.13;;;19.20;60.90;;;;;;5010210;28;20824;-72
2022/06/16 03:12:07;;;;;;;12.93;6.20;;;19.10;60.70;;;;;;5014806;28;20421;-73
2022/06/16 03:14:33;;;;;;;9.60;5.80;;;19.10;60.70;;;;;;5011762;28;20464;-73
2022/06/16 03:16:59;;;;;;;7.60;5.57;;;19.00;60.60;;;;;;5008680;28;20445;-72
2022/06/16 03:19:24;;;;;;;7.63;5.40;;;18.90;60.60;;;;;;5009868;28;20214;-71
2022/06/16 03:21:50;;;;;;;6.67;5.27;;;18.90;60.60;;;;;;5016721;28;20519;-73
2022/06/16 03:24:17;;;;;;;7.10;5.40;;;18.80;60.90;;;;;;5012243;28;20922;-72
2022/06/16 03:26:43;;;;;;;8.00;5.17;;;18.80;61.00;;;;;;5017366;28;20448;-72
2022/06/16 03:29:09;;;;;;;8.27;6.03;;;18.80;61.20;;;;;;5012348;28;20529;-72
2022/06/16 03:31:34;;;;;;;8.37;5.97;;;18.70;61.90;;;;;;5018176;28;20185;-72
2022/06/16 03:34:00;;;;;;;7.30;6.20;;;18.70;62.20;;;;;;5015771;28;20265;-71
2022/06/16 03:36:26;;;;;;;8.73;4.97;;;18.80;61.70;;;;;;5014501;28;20189;-72
2022/06/16 03:38:52;;;;;;;8.57;5.10;;;18.80;61.30;;;;;;5010238;28;20468;-73
2022/06/16 03:41:18;;;;;;;8.60;5.80;;;18.80;61.60;;;;;;5015102;28;20425;-73
2022/06/16 03:43:43;;;;;;;7.07;5.23;;;18.80;61.60;;;;;;5012585;28;20186;-72
2022/06/16 03:46:11;;;;;;;7.53;5.63;;;18.80;61.60;;;;;;5012748;28;20226;-72
2022/06/16 03:48:38;;;;;;;6.90;5.00;;;18.80;61.70;;;;;;5012238;28;20216;-71
2022/06/16 03:51:05;;;;;;;8.33;5.77;;;18.90;61.70;;;;;;5011637;28;20417;-71
2022/06/16 03:53:32;;;;;;;7.33;5.13;;;18.90;61.70;;;;;;5014336;28;21033;-73
2022/06/16 03:55:58;;;;;;;5.83;5.20;;;18.90;62.00;;;;;;5012529;28;20797;-72
2022/06/16 03:58:24;;;;;;;9.00;6.33;;;18.90;62.20;;;;;;5010691;28;20468;-72
2022/06/16 04:00:50;;;;;;;6.27;5.13;;;18.90;62.50;;;;;;5010708;28;20311;-73
2022/06/16 04:06:01;;;;;;;7.83;5.90;;;18.90;62.50;;;;;;5009315;28;20424;-72
2022/06/16 04:08:27;;;;;;;7.60;6.20;;;19.00;62.00;;;;;;5012643;28;21028;-72
2022/06/16 04:10:53;;;;;;;9.03;5.63;;;19.00;61.90;;;;;;5018284;28;20424;-72
2022/06/16 04:13:20;;;;;;;7.20;5.70;;;19.10;62.00;;;;;;5014855;28;20424;-72
2022/06/16 04:15:45;;;;;;;7.53;5.43;;;19.20;61.70;;;;;;5010770;28;20186;-73
2022/06/16 04:18:11;;;;;;;7.63;6.10;;;19.30;61.60;;;;;;5007630;28;20802;-72
2022/06/16 04:20:38;;;;;;;10.43;5.73;;;19.30;61.60;;;;;;5015294;28;20190;-71
2022/06/16 04:23:04;;;;;;;6.27;5.27;;;19.40;61.70;;;;;;5012337;28;20421;-71
2022/06/16 04:25:32;;;;;;;8.60;5.80;;;19.40;62.60;;;;;;5011299;28;20436;-72
2022/06/16 04:28:00;;;;;;;9.77;4.97;;;19.50;62.60;;;;;;5009090;28;20955;-71
2022/06/16 04:30:26;;;;;;;10.83;5.93;;;19.60;62.50;;;;;;5005909;28;20425;-75
2022/06/16 04:32:52;;;;;;;5.83;5.00;;;19.70;62.00;;;;;;5011720;28;20810;-72
2022/06/16 04:35:18;;;;;;;7.13;5.10;;;19.90;61.70;;;;;;5012682;28;20410;-72
2022/06/16 04:37:44;;;;;;;8.07;5.33;;;20.10;61.50;;;;;;5010260;28;20187;-72
2022/06/16 04:40:11;;;;;;;10.40;6.10;;;20.20;61.20;;;;;;5010489;28;20468;-72
2022/06/16 04:42:37;;;;;;;7.43;5.67;;;20.20;60.30;;;;;;5011426;28;20429;-72
2022/06/16 04:45:04;;;;;;;8.97;6.10;;;20.30;60.60;;;;;;5011236;28;20434;-72
2022/06/16 04:47:30;;;;;;;7.60;5.60;;;20.40;58.90;;;;;;5010519;28;20967;-71
2022/06/16 04:49:55;;;;;;;7.83;4.93;;;20.60;56.90;;;;;;5008940;28;20458;-72
2022/06/16 04:52:22;;;;;;;7.03;5.50;;;20.60;56.80;;;;;;5011192;28;20189;-72
2022/06/16 04:54:48;;;;;;;10.47;7.37;;;20.50;57.80;;;;;;5010562;28;20187;-71
2022/06/16 04:57:15;;;;;;;11.07;7.70;;;20.20;60.10;;;;;;5009379;28;20422;-72
2022/06/16 04:59:42;;;;;;;10.37;6.90;;;20.10;64.10;;;;;;5008617;28;20999;-72
2022/06/16 05:02:08;;;;;;;10.33;7.00;;;20.10;63.50;;;;;;5013769;28;20422;-73
2022/06/16 05:04:35;;;;;;;9.97;7.60;;;20.20;64.40;;;;;;5014281;28;20913;-72
2022/06/16 05:07:01;;;;;;;12.37;7.93;;;20.20;66.40;;;;;;5018979;28;20419;-72
2022/06/16 05:09:28;;;;;;;10.93;8.33;;;20.20;66.70;;;;;;5012574;28;20474;-72
2022/06/16 05:11:54;;;;;;;11.13;6.87;;;20.10;67.30;;;;;;5017358;28;20430;-71
2022/06/16 05:14:20;;;;;;;12.90;7.73;;;20.20;67.30;;;;;;5014745;28;20842;-72
2022/06/16 05:16:47;;;;;;;11.13;8.07;;;20.40;67.00;;;;;;5009675;28;20440;-72
2022/06/16 05:19:13;;;;;;;11.17;7.70;;;20.20;67.60;;;;;;5008111;28;20807;-72
2022/06/16 05:21:39;;;;;;;17.53;8.53;;;19.90;68.50;;;;;;5010064;28;20420;-71
2022/06/16 05:24:05;;;;;;;10.93;8.00;;;19.70;68.90;;;;;;5011415;28;20191;-72
2022/06/16 05:26:31;;;;;;;12.67;7.70;;;19.70;69.50;;;;;;5009187;28;20190;-71
2022/06/16 05:28:57;;;;;;;10.53;7.00;;;19.80;69.70;;;;;;5006883;28;20242;-72
2022/06/16 05:31:23;;;;;;;12.87;8.40;;;20.00;69.20;;;;;;5010301;28;20898;-73
2022/06/16 05:33:49;;;;;;;9.40;7.40;;;20.20;68.20;;;;;;5013485;28;20179;-72
2022/06/16 05:36:17;;;;;;;7.73;6.30;;;20.40;67.70;;;;;;5009712;28;20472;-73
2022/06/16 05:38:43;;;;;;;10.77;7.10;;;20.50;66.90;;;;;;5008241;28;20474;-73
2022/06/16 05:41:14;;;;;;;10.40;7.50;;;20.70;64.70;;;;;;5019542;28;20422;-73
2022/06/16 05:43:41;;;;;;;10.90;6.90;;;20.90;63.50;;;;;;5016272;28;20208;-72
2022/06/16 05:46:12;;;;;;;10.53;7.63;;;21.10;63.20;;;;;;5010420;28;20431;-72
2022/06/16 05:48:38;;;;;;;8.83;6.63;;;21.20;62.50;;;;;;5012814;28;20479;-73
2022/06/16 05:51:06;;;;;;;15.30;7.20;;;21.10;61.70;;;;;;5015654;28;20421;-74
2022/06/16 05:53:32;;;;;;;9.10;7.00;;;21.20;61.90;;;;;;5009857;28;20212;-71
2022/06/16 05:55:58;;;;;;;8.50;6.33;;;21.30;61.20;;;;;;5011610;28;20427;-73
2022/06/16 05:58:24;;;;;;;13.03;7.27;;;21.50;60.40;;;;;;5010566;28;20471;-71
2022/06/16 06:00:50;;;;;;;9.67;6.03;;;21.50;59.70;;;;;;5012942;28;20226;-72
2022/06/16 06:03:16;;;;;;;9.83;6.90;;;21.40;60.10;;;;;;5012765;28;20655;-72
2022/06/16 06:05:41;;;;;;;10.40;7.30;;;21.50;60.40;;;;;;5015357;28;20187;-72
2022/06/16 06:16:26;;;;;;;9.50;6.73;;;21.60;59.60;;;;;;5023992;28;20418;-72
2022/06/16 06:18:56;;;;;;;11.30;7.00;;;21.60;59.70;;;;;;5010734;28;20498;-71
2022/06/16 06:24:08;;;;;;;11.10;6.97;;;21.60;60.60;;;;;;5014128;28;20435;-71
2022/06/16 06:26:34;;;;;;;8.87;6.67;;;21.70;59.90;;;;;;5012256;28;20921;-71
2022/06/16 06:29:00;;;;;;;10.50;7.37;;;21.80;59.70;;;;;;5010716;28;20470;-71
2022/06/16 06:31:26;;;;;;;7.70;6.13;;;22.00;59.30;;;;;;5019164;28;20431;-71
2022/06/16 06:33:51;;;;;;;11.40;6.40;;;21.90;59.20;;;;;;5016184;28;20428;-72
2022/06/16 06:36:17;;;;;;;9.73;6.90;;;22.00;59.10;;;;;;5017670;28;20185;-71
2022/06/16 06:38:43;;;;;;;9.50;6.00;;;22.20;58.20;;;;;;5013717;28;20291;-73
2022/06/16 06:41:09;;;;;;;9.13;6.80;;;22.40;56.10;;;;;;5013903;28;20195;-72
2022/06/16 06:43:34;;;;;;;8.63;6.00;;;22.40;55.30;;;;;;5012570;28;20198;-72
2022/06/16 06:46:00;;;;;;;14.10;6.40;;;22.60;54.80;;;;;;5010344;28;20198;-73
2022/06/16 06:48:26;;;;;;;9.27;6.07;;;22.80;55.00;;;;;;5015093;28;20622;-71
2022/06/16 06:50:52;;;;;;;9.23;6.50;;;23.00;54.40;;;;;;5014823;28;20255;-71
2022/06/16 06:53:17;;;;;;;8.50;6.80;;;23.20;53.40;;;;;;5017449;28;20192;-72
2022/06/16 06:55:46;;;;;;;8.53;6.17;;;23.30;52.90;;;;;;5013144;28;21099;-71
2022/06/16 06:58:19;;;;;;;9.03;6.10;;;23.40;52.80;;;;;;5014038;28;20253;-71
2022/06/16 07:00:45;;;;;;;8.40;6.33;;;23.50;52.20;;;;;;5018346;28;20522;-72
2022/06/16 07:03:11;;;;;;;10.43;7.27;;;23.50;51.80;;;;;;5012470;28;20512;-71
2022/06/16 07:05:37;;;;;;;7.10;6.10;;;23.40;51.80;;;;;;5019329;28;20425;-73
2022/06/16 07:08:05;;;;;;;8.37;6.63;;;23.40;51.70;;;;;;5008315;28;20259;-72
2022/06/16 07:10:31;;;;;;;10.47;6.90;;;23.40;52.10;;;;;;5011929;28;20431;-72
2022/06/16 07:12:56;;;;;;;9.47;6.90;;;23.50;51.30;;;;;;5011728;28;20434;-71
2022/06/16 07:15:23;;;;;;;8.43;6.73;;;23.30;52.00;;;;;;5011735;28;20282;-72
2022/06/16 07:17:49;;;;;;;9.13;5.97;;;23.20;51.60;;;;;;5013787;28;20188;-71
2022/06/16 07:20:16;;;;;;;8.00;6.53;;;23.20;52.20;;;;;;5008871;28;20857;-71
2022/06/16 07:22:45;;;;;;;13.30;8.33;;;23.10;54.80;;;;;;5017083;28;20972;-72
2022/06/16 07:25:12;;;;;;;9.87;6.90;;;23.20;56.20;;;;;;5014874;28;20870;-72
2022/06/16 07:27:38;;;;;;;9.43;7.07;;;23.10;56.50;;;;;;5009858;28;20490;-72
2022/06/16 07:30:13;;;;;;;14.87;7.53;;;23.30;55.70;;;;;;5012711;28;20453;-72
2022/06/16 07:32:40;;;;;;;11.67;7.73;;;23.60;55.60;;;;;;5015430;28;20625;-73
2022/06/16 07:35:06;;;;;;;11.03;7.10;;;23.80;55.20;;;;;;5012121;28;20415;-70
2022/06/16 07:37:32;;;;;;;9.30;7.10;;;23.90;54.80;;;;;;5010758;28;20438;-72
2022/06/16 07:39:58;;;;;;;10.80;6.67;;;24.00;53.70;;;;;;5011255;28;20506;-70
2022/06/16 07:42:24;;;;;;;8.00;6.90;;;24.00;53.70;;;;;;5010029;28;20522;-72
2022/06/16 07:44:49;;;;;;;10.73;6.90;;;24.20;54.10;;;;;;5019254;28;20208;-73
2022/06/16 07:47:15;;;;;;;9.43;7.23;;;24.30;53.40;;;;;;5013353;28;20182;-71
2022/06/16 07:49:42;;;;;;;11.57;7.30;;;24.20;53.00;;;;;;5011316;28;20218;-71
2022/06/16 07:52:09;;;;;;;10.37;7.03;;;24.10;53.60;;;;;;5012054;28;20233;-71
2022/06/16 07:54:34;;;;;;;8.47;7.30;;;24.10;53.80;;;;;;5016756;28;20430;-74
2022/06/16 07:57:00;;;;;;;8.70;7.10;;;24.30;53.40;;;;;;5010840;28;20566;-72
2022/06/16 07:59:26;;;;;;;8.77;6.77;;;24.40;53.40;;;;;;4968594;28;1245715;-73
2022/06/16 08:01:53;;;;;;;10.43;6.90;;;24.40;53.70;;;;;;5012959;28;20201;-71
2022/06/16 08:04:19;;;;;;;7.87;6.87;;;24.40;53.70;;;;;;5017519;28;20642;-73
2022/06/16 08:06:45;;;;;;;11.67;7.80;;;24.30;54.10;;;;;;5017857;28;20416;-73
2022/06/16 08:09:11;;;;;;;10.70;7.63;;;24.30;55.30;;;;;;5012194;28;20244;-73
2022/06/16 08:14:21;;;;;;;10.60;7.77;;;24.40;56.50;;;;;;5016487;28;20456;-74
2022/06/16 08:16:47;;;;;;;12.13;7.47;;;24.40;56.40;;;;;;5011137;28;20458;-72
2022/06/16 08:19:13;;;;;;;11.73;7.20;;;24.60;56.00;;;;;;5009968;28;20215;-72
2022/06/16 08:21:39;;;;;;;10.73;6.97;;;24.80;56.10;;;;;;5015775;28;20240;-71
2022/06/16 08:24:06;;;;;;;11.03;7.70;;;24.80;55.20;;;;;;5018473;28;20207;-72
2022/06/16 08:26:32;;;;;;;11.83;6.77;;;24.80;54.80;;;;;;5014127;28;20266;-74
2022/06/16 08:28:58;;;;;;;8.67;7.47;;;24.80;53.40;;;;;;5013909;28;20489;-73
2022/06/16 08:31:25;;;;;;;8.50;7.33;;;24.90;51.80;;;;;;5012505;28;20427;-73
2022/06/16 08:33:52;;;;;;;10.37;6.90;;;24.80;52.10;;;;;;5024048;28;20552;-74
2022/06/16 08:36:20;;;;;;;10.70;7.47;;;24.70;52.80;;;;;;5015075;28;20428;-72
2022/06/16 08:38:47;;;;;;;16.30;7.50;;;24.60;53.30;;;;;;5015158;28;20454;-73
2022/06/16 08:41:20;;;;;;;9.97;6.60;;;24.70;52.80;;;;;;5022856;28;20418;-75
2022/06/16 08:44:11;;;;;;;14.27;9.33;;;24.90;52.60;;;;;;5024150;28;20456;-75
2022/06/16 08:46:45;;;;;;;13.67;7.00;;;25.00;51.00;;;;;;5022982;28;20425;-71
2022/06/16 08:49:45;;;;;;;10.30;7.30;;;25.00;50.30;;;;;;5016740;28;20696;-73
2022/06/16 08:52:37;;;;;;;8.80;6.60;;;24.90;50.20;;;;;;5015742;28;20415;-73
2022/06/16 08:55:20;;;;;;;9.03;6.60;;;25.00;49.10;;;;;;5011477;28;20899;-72
2022/06/16 08:58:10;;;;;;;11.60;7.50;;;24.90;49.00;;;;;;4999043;28;20452;-71
2022/06/16 09:00:46;;;;;;;7.47;6.60;;;25.00;49.40;;;;;;5015179;28;20450;-71
2022/06/16 09:03:17;;;;;;;8.03;6.50;;;25.00;49.30;;;;;;5012200;28;20427;-72
2022/06/16 09:06:27;;;;;;;10.00;6.90;;;25.10;49.50;;;;;;5016749;28;20419;-74
2022/06/16 09:09:11;;;;;;;7.37;6.47;;;25.20;49.40;;;;;;5006243;28;20474;-73
2022/06/16 09:12:04;;;;;;;16.57;7.40;;;25.30;48.50;;;;;;5023382;28;20430;-72
2022/06/16 09:17:40;;;;;;;6.53;5.83;;;25.60;48.50;;;;;;5000866;28;20411;-72
2022/06/16 09:20:20;;;;;;;10.77;6.80;;;25.60;47.90;;;;;;5005112;28;20570;-73
2022/06/16 09:22:46;;;;;;;14.20;7.13;;;25.80;46.90;;;;;;5016426;28;20414;-72
2022/06/16 09:25:24;;;;;;;12.00;6.87;;;25.70;47.80;;;;;;5012326;28;20835;-70
2022/06/16 09:28:11;;;;;;;8.27;6.60;;;25.60;49.40;;;;;;5005717;28;21112;-73
2022/06/16 09:30:40;;;;;;;6.30;5.90;;;25.70;50.10;;;;;;5009100;28;20419;-74
2022/06/16 09:33:19;;;;;;;8.60;7.07;;;25.90;50.30;;;;;;5019409;28;20460;-72
2022/06/16 09:36:08;;;;;;;12.63;7.67;;;26.00;50.70;;;;;;5008507;28;20420;-75
2022/06/16 09:38:41;;;;;;;9.03;7.40;;;25.70;49.90;;;;;;4998751;28;20463;-74
2022/06/16 09:44:11;;;;;;;9.70;7.00;;;25.70;51.40;;;;;;5012455;28;20455;-72
2022/06/16 09:46:41;;;;;;;11.90;7.00;;;25.80;50.30;;;;;;5003717;28;20423;-74
2022/06/16 09:49:09;;;;;;;9.57;7.80;;;25.80;50.30;;;;;;5006169;28;20475;-75
2022/06/16 09:51:41;;;;;;;10.67;7.87;;;25.80;50.30;;;;;;5023201;28;20424;-74
2022/06/16 09:54:18;;;;;;;13.47;7.40;;;25.80;51.00;;;;;;5016109;28;20424;-74
2022/06/16 09:56:52;;;;;;;11.83;7.37;;;25.70;51.00;;;;;;5014869;28;20422;-73
2022/06/16 09:59:42;;;;;;;10.20;7.40;;;25.60;52.10;;;;;;5012047;28;20533;-74
2022/06/16 10:02:18;;;;;;;9.93;7.30;;;25.50;52.40;;;;;;5016683;28;20435;-74
2022/06/16 10:04:45;;;;;;;12.90;8.27;;;25.60;51.70;;;;;;5004354;28;20875;-73
2022/06/16 10:07:41;;;;;;;15.53;8.10;;;25.40;52.40;;;;;;5011645;28;20553;-74
2022/06/16 10:10:17;;;;;;;11.10;6.60;;;25.60;53.00;;;;;;5004479;28;20475;-73
2022/06/16 10:12:54;;;;;;;12.37;7.30;;;25.60;52.40;;;;;;5009022;28;20419;-74
2022/06/16 10:15:47;;;;;;;13.53;7.30;;;25.80;51.00;;;;;;5008071;28;20827;-73
2022/06/16 10:18:14;;;;;;;12.20;7.60;;;25.50;52.20;;;;;;5003528;28;20438;-74
2022/06/16 10:20:40;;;;;;;11.90;7.77;;;25.30;52.90;;;;;;5004732;28;20420;-74
2022/06/16 10:23:25;;;;;;;8.73;7.60;;;25.60;52.40;;;;;;5007315;28;20446;-75
2022/06/16 10:26:02;;;;;;;8.83;7.30;;;25.70;50.60;;;;;;5010008;28;20435;-70
2022/06/16 10:28:28;;;;;;;15.20;7.67;;;25.90;51.40;;;;;;5007693;28;20487;-74
2022/06/16 10:30:55;;;;;;;8.80;7.17;;;26.00;50.50;;;;;;5006930;28;20426;-73
2022/06/16 10:33:36;;;;;;;13.33;6.93;;;26.10;51.40;;;;;;5007924;28;20427;-71
2022/06/16 10:36:07;;;;;;;10.10;7.40;;;26.00;51.30;;;;;;5006667;28;20924;-71
2022/06/16 10:38:42;;;;;;;10.53;7.10;;;26.20;50.90;;;;;;5004203;28;20468;-73
2022/06/16 10:41:50;;;;;;;8.70;7.07;;;26.60;50.60;;;;;;5014030;28;20418;-75
2022/06/16 10:44:18;;;;;;;12.93;6.97;;;26.90;49.50;;;;;;5009857;28;20440;-73
2022/06/16 10:46:52;;;;;;;11.93;7.53;;;26.90;48.90;;;;;;5010283;28;20539;-75
2022/06/16 10:49:22;;;;;;;10.30;6.83;;;26.80;49.50;;;;;;5001220;28;20559;-74
2022/06/16 10:51:55;;;;;;;8.93;6.80;;;26.90;49.40;;;;;;5010858;28;20519;-75
2022/06/16 10:54:31;;;;;;;10.13;7.03;;;26.80;48.50;;;;;;5016141;28;20447;-75
2022/06/16 10:57:22;;;;;;;7.33;6.47;;;26.90;49.00;;;;;;5011084;28;20430;-72
2022/06/16 11:00:10;;;;;;;8.10;6.80;;;26.90;48.90;;;;;;5003758;28;20571;-73
2022/06/16 11:02:36;;;;;;;7.80;6.93;;;27.00;47.40;;;;;;5009425;28;20487;-73
2022/06/16 11:05:13;;;;;;;9.70;6.90;;;26.90;48.30;;;;;;5010652;28;20429;-74
2022/06/16 11:07:42;;;;;;;9.60;7.30;;;27.20;47.90;;;;;;5009181;28;20551;-74
2022/06/16 11:10:27;;;;;;;7.83;6.73;;;27.50;48.60;;;;;;5040152;28;20464;-75
2022/06/16 11:12:53;;;;;;;8.87;6.10;;;27.40;46.60;;;;;;5008140;28;20428;-74
2022/06/16 11:15:31;;;;;;;8.43;6.37;;;27.40;47.80;;;;;;5014498;28;20772;-73
2022/06/16 11:18:01;;;;;;;10.80;6.50;;;27.70;46.10;;;;;;5011389;28;20546;-72
2022/06/16 11:20:39;;;;;;;8.80;6.60;;;27.30;46.30;;;;;;5011608;28;20527;-74
2022/06/16 11:23:24;;;;;;;9.53;7.47;;;27.50;46.30;;;;;;5012916;28;20436;-73
2022/06/16 11:26:17;;;;;;;9.43;6.37;;;27.60;46.10;;;;;;5011120;28;20515;-73
2022/06/16 11:28:49;;;;;;;8.70;7.43;;;27.90;45.40;;;;;;5006870;28;20542;-74
2022/06/16 11:31:39;;;;;;;7.53;6.37;;;28.00;45.30;;;;;;5013419;28;20479;-74
2022/06/16 11:34:09;;;;;;;14.40;7.20;;;28.10;44.90;;;;;;5016917;28;20425;-73
2022/06/16 11:37:06;;;;;;;7.50;6.90;;;28.40;44.50;;;;;;5009558;28;20417;-74
2022/06/16 11:39:53;;;;;;;11.20;6.97;;;28.20;45.50;;;;;;5017531;28;20839;-73
2022/06/16 11:42:40;;;;;;;10.57;7.23;;;28.50;43.80;;;;;;5006055;28;20478;-74
2022/06/16 11:45:14;;;;;;;11.13;7.70;;;28.00;45.00;;;;;;5008462;28;20476;-73
2022/06/16 11:47:49;;;;;;;8.13;6.97;;;27.60;45.90;;;;;;5007433;28;20445;-75
2022/06/16 11:50:31;;;;;;;7.67;6.90;;;27.70;45.50;;;;;;5011042;28;20502;-74
2022/06/16 11:53:18;;;;;;;9.37;6.97;;;27.30;46.50;;;;;;5008495;28;20421;-72
2022/06/16 11:56:07;;;;;;;11.63;6.87;;;27.40;45.10;;;;;;5009934;28;20540;-74
2022/06/16 11:58:38;;;;;;;11.53;6.83;;;27.40;44.50;;;;;;5002832;28;20471;-74
2022/06/16 12:01:28;;;;;;;6.97;6.30;;;27.50;44.20;;;;;;5009924;28;21018;-73
2022/06/16 12:04:25;;;;;;;8.77;6.60;;;27.60;44.50;;;;;;5009718;28;20433;-73
2022/06/16 12:07:03;;;;;;;7.50;6.67;;;27.90;44.10;;;;;;5020919;28;20460;-74
2022/06/16 12:09:57;;;;;;;9.03;6.90;;;28.30;42.80;;;;;;5007546;28;20507;-74
2022/06/16 12:12:44;;;;;;;8.57;7.00;;;28.00;42.70;;;;;;5006527;28;20421;-72
2022/06/16 12:15:26;;;;;;;10.07;6.87;;;28.00;43.10;;;;;;5014878;28;20439;-74
2022/06/16 12:18:14;;;;;;;9.50;6.43;;;28.30;42.20;;;;;;5008723;28;20427;-73
2022/06/16 12:20:55;;;;;;;10.00;6.90;;;27.80;42.80;;;;;;5005840;28;20455;-73
2022/06/16 12:23:26;;;;;;;8.23;6.17;;;28.00;43.10;;;;;;5016148;28;20427;-74
2022/06/16 12:25:56;;;;;;;9.13;6.83;;;27.90;43.00;;;;;;5013653;28;20794;-74
2022/06/16 12:28:50;;;;;;;9.93;7.10;;;27.70;43.70;;;;;;5010615;28;20564;-74
2022/06/16 12:31:41;;;;;;;9.10;6.50;;;27.80;44.30;;;;;;5011775;28;20420;-75
2022/06/16 12:34:44;;;;;;;6.77;6.40;;;28.20;43.90;;;;;;5008307;28;20424;-73
2022/06/16 12:37:16;;;;;;;7.60;5.93;;;28.30;43.10;;;;;;5012573;28;20974;-75
2022/06/16 12:39:55;;;;;;;12.73;6.53;;;28.20;41.40;;;;;;5008385;28;21379;-73
2022/06/16 12:42:25;;;;;;;8.47;6.37;;;28.20;41.40;;;;;;5014130;28;21143;-73
2022/06/16 12:45:06;;;;;;;9.50;6.03;;;28.20;42.40;;;;;;5015250;28;20425;-71
2022/06/16 12:48:01;;;;;;;9.50;6.07;;;28.00;41.90;;;;;;5004324;28;20467;-72
2022/06/16 12:50:36;;;;;;;14.37;6.73;;;28.30;42.20;;;;;;5013274;28;20456;-74
2022/06/16 12:53:08;;;;;;;6.60;6.00;;;28.90;40.80;;;;;;5012049;28;20993;-73
2022/06/16 12:56:03;;;;;;;7.60;5.90;;;29.20;39.90;;;;;;5014258;28;20863;-75
2022/06/16 12:58:41;;;;;;;15.60;6.07;;;29.40;39.90;;;;;;5005726;28;20465;-73
2022/06/16 13:01:11;;;;;;;12.40;6.90;;;28.40;40.80;;;;;;5009627;28;20504;-74
2022/06/16 13:03:49;;;;;;;8.43;5.90;;;28.10;42.30;;;;;;5008861;28;20808;-73
2022/06/16 13:06:21;;;;;;;7.27;5.90;;;28.80;41.50;;;;;;5009402;28;20425;-73
2022/06/16 13:08:51;;;;;;;9.90;6.33;;;29.20;38.40;;;;;;5009013;28;20507;-74
2022/06/16 13:11:21;;;;;;;7.10;6.10;;;30.20;37.00;;;;;;5006727;28;20425;-73
2022/06/16 13:14:02;;;;;;;7.67;5.70;;;29.80;36.00;;;;;;5009637;28;20932;-73
2022/06/16 13:16:31;;;;;;;6.20;5.40;;;30.40;32.90;;;;;;5012993;28;20421;-74
2022/06/16 13:19:19;;;;;;;11.30;6.40;;;30.10;35.20;;;;;;5007751;28;20488;-72
2022/06/16 13:21:53;;;;;;;8.60;5.97;;;30.60;35.10;;;;;;5010785;28;20448;-73
2022/06/16 13:24:23;;;;;;;10.50;5.90;;;30.00;34.80;;;;;;5017593;28;20480;-75
2022/06/16 13:27:23;;;;;;;8.40;5.77;;;29.40;36.80;;;;;;5010752;28;20536;-73
2022/06/16 13:29:52;;;;;;;7.50;5.47;;;29.10;38.30;;;;;;5006462;28;20498;-74
2022/06/16 13:32:21;;;;;;;8.80;5.63;;;29.90;35.90;;;;;;5007535;28;20497;-75
2022/06/16 13:34:56;;;;;;;7.50;5.30;;;30.00;35.50;;;;;;5020440;28;20425;-75
2022/06/16 13:37:41;;;;;;;14.77;6.17;;;30.10;34.70;;;;;;5012018;28;20679;-74
2022/06/16 13:40:07;;;;;;;8.80;5.70;;;29.30;36.30;;;;;;5008313;28;20471;-74
2022/06/16 13:42:51;;;;;;;10.57;6.13;;;29.30;35.90;;;;;;5021618;28;20788;-76